Plain, Washington
Current Conditions -  °F | °C
As of 5:55 AM on Saturday 22 Nov 2014 (Local Time) from KEAT Reporting Station
Light Snow Light Snow  
Wind Chill: 24°   Ceiling: Unl
Heat Index: 32°   Visibility: 10mi
Dew Point: 28°   Wind: 9mph
Humidity: 85%   Direction: 90°E
Pressure: 29.56"   Gusts: NA
Location:  47.7866°N, 120.856°W
Report Text: KEAT 221355Z AUTO 09008KT 10SM -SN CLR 00/M02 A2956 RMK AO2 SNB52 SLP021 P0000 T00001022
Loading
Personal Weather Stations






























Interactive Weather Map New forecast layout! Learn more

10-Day Weather Forecast

Advertisements
Track Severe Weather on mobile